createdAt,value
2018-05-31T00:01:36.631Z,19.30
2018-05-31T00:04:04.115Z,19.30
2018-05-31T00:06:31.597Z,19.30
2018-05-31T00:08:59.834Z,19.30
2018-05-31T00:11:27.313Z,19.30
2018-05-31T00:13:54.798Z,19.30
2018-05-31T00:16:22.279Z,19.30
2018-05-31T00:18:49.749Z,19.30
2018-05-31T00:21:17.240Z,19.20
2018-05-31T00:23:44.699Z,19.20
2018-05-31T00:26:12.173Z,19.10
2018-05-31T00:28:40.421Z,19.20
2018-05-31T00:31:07.905Z,19.10
2018-05-31T00:33:36.132Z,19.10
2018-05-31T00:36:03.606Z,19.10
2018-05-31T00:38:31.085Z,19.10
2018-05-31T00:40:59.312Z,19.20
2018-05-31T00:43:26.796Z,19.10
2018-05-31T00:45:54.260Z,19.10
2018-05-31T00:48:21.736Z,19.10
2018-05-31T00:50:49.967Z,19.00
2018-05-31T00:53:17.449Z,19.00
2018-05-31T00:55:56.742Z,19.00
2018-05-31T00:58:24.228Z,19.00
2018-05-31T01:00:51.691Z,18.90
2018-05-31T01:03:19.172Z,18.80
2018-05-31T01:05:47.404Z,18.80
2018-05-31T01:08:14.880Z,18.70
2018-05-31T01:10:42.352Z,18.70
2018-05-31T01:13:10.597Z,18.60
2018-05-31T01:15:38.057Z,18.60
2018-05-31T01:18:06.290Z,18.60
2018-05-31T01:20:33.759Z,18.60
2018-05-31T01:23:01.229Z,18.50
2018-05-31T01:25:28.700Z,18.50
2018-05-31T01:27:56.172Z,18.50
2018-05-31T01:30:23.645Z,18.40
2018-05-31T01:32:51.887Z,18.40
2018-05-31T01:35:19.356Z,18.40
2018-05-31T01:37:47.729Z,18.40
2018-05-31T01:40:15.202Z,18.40
2018-05-31T01:42:42.669Z,18.30
2018-05-31T01:45:10.917Z,18.30
2018-05-31T01:47:38.385Z,18.20
2018-05-31T01:50:05.869Z,18.20
2018-05-31T01:52:34.100Z,18.10
2018-05-31T01:55:01.577Z,18.10
2018-05-31T01:57:29.075Z,18.20
2018-05-31T01:59:56.551Z,18.10
2018-05-31T02:02:24.028Z,18.10
2018-05-31T02:04:51.496Z,18.10
2018-05-31T02:07:18.984Z,18.10
2018-05-31T02:09:47.232Z,18.10
2018-05-31T02:12:14.696Z,18.10
2018-05-31T02:14:42.171Z,18.10
2018-05-31T02:17:10.407Z,18.10
2018-05-31T02:19:37.880Z,18.10
2018-05-31T02:22:05.352Z,18.20
2018-05-31T02:24:33.595Z,18.30
2018-05-31T02:27:01.076Z,18.20
2018-05-31T02:29:28.551Z,18.30
2018-05-31T02:31:56.788Z,18.30
2018-05-31T02:34:24.260Z,18.20
2018-05-31T02:36:51.733Z,18.30
2018-05-31T02:39:19.963Z,18.20
2018-05-31T02:41:47.444Z,18.20
2018-05-31T02:44:14.909Z,18.30
2018-05-31T02:46:42.377Z,18.30
2018-05-31T02:49:10.620Z,18.30
2018-05-31T02:51:38.097Z,18.20
2018-05-31T02:54:05.561Z,18.30
2018-05-31T02:56:33.804Z,18.30
2018-05-31T02:59:01.267Z,18.20
2018-05-31T03:01:28.740Z,18.30
2018-05-31T03:03:56.224Z,18.20
2018-05-31T03:06:23.692Z,18.20
2018-05-31T03:08:51.924Z,18.20
2018-05-31T03:11:19.395Z,18.20
2018-05-31T03:13:46.859Z,18.20
2018-05-31T03:16:15.101Z,18.30
2018-05-31T03:18:42.564Z,18.20
2018-05-31T03:21:10.040Z,18.20
2018-05-31T03:23:38.278Z,18.30
2018-05-31T03:26:05.733Z,18.20
2018-05-31T03:28:33.218Z,18.20
2018-05-31T03:31:00.680Z,18.20
2018-05-31T03:33:28.152Z,18.20
2018-05-31T03:35:56.396Z,18.20
2018-05-31T03:38:23.872Z,18.20
2018-05-31T03:40:51.336Z,18.20
2018-05-31T03:43:19.581Z,18.30
2018-05-31T03:45:47.069Z,18.20
2018-05-31T03:48:15.340Z,18.30
2018-05-31T03:50:43.587Z,18.30
2018-05-31T03:53:11.078Z,18.30
2018-05-31T03:55:39.323Z,18.30
2018-05-31T03:58:06.788Z,18.30
2018-05-31T04:00:34.274Z,18.30
2018-05-31T04:03:02.504Z,18.40
2018-05-31T04:05:29.985Z,18.40
2018-05-31T04:07:57.448Z,18.50
2018-05-31T04:10:25.688Z,18.60
2018-05-31T04:12:53.152Z,18.50
2018-05-31T04:15:20.681Z,18.60
2018-05-31T04:17:48.149Z,18.60
2018-05-31T04:20:15.680Z,18.70
2018-05-31T04:22:43.161Z,18.70
2018-05-31T04:25:10.625Z,18.70
2018-05-31T04:27:38.104Z,18.80
2018-05-31T04:30:05.569Z,18.90
2018-05-31T04:32:33.043Z,18.90
2018-05-31T04:35:01.279Z,19.00
2018-05-31T04:37:28.819Z,19.00
2018-05-31T04:39:56.287Z,19.10
2018-05-31T04:42:23.767Z,19.10
2018-05-31T04:44:51.223Z,19.30
2018-05-31T04:47:18.749Z,19.40
2018-05-31T04:49:46.214Z,19.50
2018-05-31T04:52:13.675Z,19.50
2018-05-31T04:54:41.961Z,19.70
2018-05-31T04:57:09.500Z,19.70
2018-05-31T04:59:36.974Z,19.80
2018-05-31T05:02:04.448Z,19.90
2018-05-31T05:04:31.918Z,20.00
2018-05-31T05:06:59.460Z,20.10
2018-05-31T05:09:26.929Z,20.20
2018-05-31T05:11:54.404Z,20.30
2018-05-31T05:14:22.636Z,20.80
2018-05-31T05:16:50.117Z,20.80
2018-05-31T05:19:17.588Z,21.00
2018-05-31T05:21:45.830Z,21.20
2018-05-31T05:24:13.304Z,21.20
2018-05-31T05:26:40.772Z,21.30
2018-05-31T05:29:09.025Z,21.30
2018-05-31T05:31:36.488Z,21.30
2018-05-31T05:34:03.958Z,21.30
2018-05-31T05:36:32.203Z,21.40
2018-05-31T05:38:59.664Z,21.40
2018-05-31T05:41:27.135Z,21.50
2018-05-31T05:43:54.618Z,21.50
2018-05-31T05:46:22.857Z,21.60
2018-05-31T05:48:50.340Z,21.60
2018-05-31T05:51:18.596Z,21.70
2018-05-31T05:53:46.072Z,21.70
2018-05-31T05:56:14.324Z,21.60
2018-05-31T05:58:41.792Z,21.60
2018-05-31T06:01:09.273Z,21.60
2018-05-31T06:03:37.509Z,21.60
2018-05-31T06:06:04.990Z,21.60
2018-05-31T06:08:32.460Z,21.50
2018-05-31T06:11:00.705Z,21.30
2018-05-31T06:13:28.192Z,21.20
2018-05-31T06:15:56.440Z,21.20
2018-05-31T06:18:23.933Z,21.20
2018-05-31T06:20:51.401Z,21.10
2018-05-31T06:23:18.883Z,21.00
2018-05-31T06:25:46.361Z,21.10
2018-05-31T06:28:13.824Z,21.30
2018-05-31T06:30:41.298Z,21.40
2018-05-31T06:33:09.541Z,22.00
2018-05-31T06:35:37.017Z,22.00
2018-05-31T06:38:04.484Z,22.40
2018-05-31T06:40:31.944Z,22.80
2018-05-31T06:43:00.207Z,23.70
2018-05-31T06:45:27.652Z,23.60
2018-05-31T06:47:55.105Z,23.90
2018-05-31T06:50:22.571Z,24.20
2018-05-31T06:52:50.807Z,24.40
2018-05-31T06:55:18.305Z,24.40
2018-05-31T06:57:45.760Z,24.60
2018-05-31T07:00:13.996Z,25.40
2018-05-31T07:02:41.496Z,25.40
2018-05-31T07:05:08.960Z,25.60
2018-05-31T07:07:37.200Z,25.80
2018-05-31T07:10:04.664Z,25.80
2018-05-31T07:12:32.127Z,25.90
2018-05-31T07:14:59.601Z,26.00
2018-05-31T07:17:27.052Z,26.20
2018-05-31T07:19:54.516Z,26.40
2018-05-31T07:22:21.976Z,26.60
2018-05-31T07:24:49.442Z,26.70
2018-05-31T07:27:17.689Z,26.60
2018-05-31T07:29:45.146Z,26.60
2018-05-31T07:32:12.612Z,26.50
2018-05-31T07:34:40.085Z,26.20
2018-05-31T07:37:08.305Z,25.80
2018-05-31T07:39:35.769Z,25.80
2018-05-31T07:42:03.240Z,25.60
2018-05-31T07:44:30.701Z,25.40
2018-05-31T07:46:58.165Z,25.20
2018-05-31T07:49:26.444Z,25.10
2018-05-31T07:51:55.413Z,25.20
2018-05-31T07:54:22.884Z,25.20
2018-05-31T07:56:50.512Z,25.50
2018-05-31T07:59:17.984Z,26.00
2018-05-31T08:01:45.461Z,26.10
2018-05-31T08:04:12.929Z,26.50
2018-05-31T08:06:40.381Z,26.60
2018-05-31T08:09:07.859Z,26.80
2018-05-31T08:11:36.076Z,27.30
2018-05-31T08:14:03.557Z,27.20
2018-05-31T08:16:31.025Z,27.30
2018-05-31T08:18:58.485Z,27.30
2018-05-31T08:21:25.959Z,27.40
2018-05-31T08:23:54.186Z,27.40
2018-05-31T08:26:21.654Z,27.40
2018-05-31T08:28:49.120Z,27.40
2018-05-31T08:31:16.589Z,27.20
2018-05-31T08:33:44.057Z,27.10
2018-05-31T08:36:11.560Z,26.80
2018-05-31T08:38:39.049Z,26.60
2018-05-31T08:41:06.521Z,26.10
2018-05-31T08:43:33.989Z,26.00
2018-05-31T08:46:02.238Z,25.40
2018-05-31T08:48:29.694Z,25.40
2018-05-31T08:50:57.167Z,25.20
2018-05-31T08:53:24.628Z,25.10
2018-05-31T08:55:52.080Z,25.10
2018-05-31T08:58:20.456Z,24.70
2018-05-31T09:00:47.937Z,24.30
2018-05-31T09:03:16.171Z,23.50
2018-05-31T09:05:43.645Z,23.50
2018-05-31T09:08:11.117Z,23.40
2018-05-31T09:10:39.567Z,23.00
2018-05-31T09:13:07.035Z,23.00
2018-05-31T09:15:34.492Z,22.70
2018-05-31T09:18:02.732Z,22.30
2018-05-31T09:20:30.187Z,22.30
2018-05-31T09:22:57.659Z,21.90
2018-05-31T09:25:25.121Z,21.60
2018-05-31T09:27:52.577Z,21.20
2018-05-31T09:30:20.045Z,20.80
2018-05-31T09:32:47.501Z,20.50
2018-05-31T09:35:14.969Z,20.00
2018-05-31T09:37:42.446Z,19.70
2018-05-31T09:40:10.671Z,19.60
2018-05-31T09:42:38.133Z,19.50
2018-05-31T09:45:05.596Z,19.60
2018-05-31T09:47:33.057Z,19.50
2018-05-31T09:50:00.532Z,19.40
2018-05-31T09:52:28.758Z,19.40
2018-05-31T09:54:56.217Z,19.40
2018-05-31T09:57:23.696Z,19.60
2018-05-31T09:59:51.157Z,19.70
2018-05-31T10:02:18.612Z,19.60
2018-05-31T10:04:46.082Z,19.70
2018-05-31T10:07:13.542Z,19.90
2018-05-31T10:09:41.016Z,20.10
2018-05-31T10:12:09.248Z,20.20
2018-05-31T10:14:36.704Z,20.20
2018-05-31T10:17:04.174Z,20.20
2018-05-31T10:19:32.392Z,19.80
2018-05-31T10:21:59.850Z,19.80
2018-05-31T10:24:28.316Z,19.80
2018-05-31T10:26:56.544Z,19.70
2018-05-31T10:29:24.009Z,19.70
2018-05-31T10:31:51.473Z,19.80
2018-05-31T10:34:19.017Z,19.90
2018-05-31T10:36:46.460Z,19.90
2018-05-31T10:39:13.924Z,19.80
2018-05-31T10:41:41.391Z,19.70
2018-05-31T10:44:08.849Z,19.50
2018-05-31T10:46:36.337Z,19.40
2018-05-31T10:49:03.800Z,19.30
2018-05-31T10:51:32.020Z,19.60
2018-05-31T10:53:59.489Z,19.60
2018-05-31T10:56:26.949Z,19.70
2018-05-31T10:58:54.424Z,19.90
2018-05-31T11:01:21.876Z,20.10
2018-05-31T11:03:49.340Z,20.50
2018-05-31T11:06:16.808Z,20.50
2018-05-31T11:08:44.352Z,20.60
2018-05-31T11:11:11.763Z,20.50
2018-05-31T11:13:39.221Z,20.30
2018-05-31T11:16:06.701Z,20.40
2018-05-31T11:18:34.154Z,20.10
2018-05-31T11:21:01.613Z,20.20
2018-05-31T11:23:29.076Z,20.20
2018-05-31T11:25:56.556Z,20.00
2018-05-31T11:28:24.028Z,20.00
2018-05-31T11:30:52.257Z,20.20
2018-05-31T11:33:19.709Z,20.20
2018-05-31T11:35:47.176Z,20.20
2018-05-31T11:38:14.632Z,20.10
2018-05-31T11:40:42.096Z,20.00
2018-05-31T11:43:09.565Z,20.00
2018-05-31T11:45:37.024Z,19.80
2018-05-31T11:48:04.486Z,19.70
2018-05-31T11:50:31.940Z,19.80
2018-05-31T11:52:59.391Z,19.70
2018-05-31T11:55:26.860Z,19.80
2018-05-31T11:57:54.332Z,19.80
2018-05-31T12:00:22.561Z,20.00
2018-05-31T12:02:50.025Z,20.00
2018-05-31T12:05:17.476Z,20.10
2018-05-31T12:07:44.932Z,20.70
2018-05-31T12:10:12.404Z,21.30
2018-05-31T12:12:39.872Z,21.90
2018-05-31T12:15:07.337Z,22.30
2018-05-31T12:17:35.591Z,22.70
2018-05-31T12:22:37.020Z,23.00
2018-05-31T12:25:04.495Z,23.20
2018-05-31T12:27:31.976Z,23.40
2018-05-31T12:29:59.417Z,23.70
2018-05-31T12:32:26.864Z,23.80
2018-05-31T12:34:54.320Z,23.80
2018-05-31T12:37:21.803Z,23.70
2018-05-31T12:39:49.255Z,23.70
2018-05-31T12:42:16.711Z,23.80
2018-05-31T12:44:44.167Z,23.90
2018-05-31T12:47:11.625Z,24.00
2018-05-31T12:49:39.096Z,24.00
2018-05-31T12:52:06.547Z,23.70
2018-05-31T12:54:34.004Z,23.70
2018-05-31T12:57:01.492Z,24.10
2018-05-31T12:59:28.949Z,24.10
2018-05-31T13:01:56.412Z,24.00
2018-05-31T13:04:23.864Z,23.80
2018-05-31T13:06:51.340Z,24.00
2018-05-31T13:09:18.797Z,24.10
2018-05-31T13:11:46.253Z,24.10
2018-05-31T13:14:13.724Z,24.30
2018-05-31T13:16:41.235Z,24.20
2018-05-31T13:19:09.459Z,24.40
2018-05-31T13:21:36.921Z,24.40
2018-05-31T13:24:04.377Z,24.60
2018-05-31T13:26:31.831Z,24.70
2018-05-31T13:28:59.295Z,24.60
2018-05-31T13:31:26.745Z,24.90
2018-05-31T13:33:54.215Z,24.90
2018-05-31T13:36:21.677Z,24.80
2018-05-31T13:38:49.152Z,25.00
2018-05-31T13:41:17.398Z,25.00
2018-05-31T13:43:44.856Z,25.00
2018-05-31T13:46:12.323Z,25.20
2018-05-31T13:48:39.804Z,25.40
2018-05-31T13:51:07.245Z,25.70
2018-05-31T13:53:34.700Z,25.50
2018-05-31T13:56:02.168Z,25.90
2018-05-31T13:58:29.631Z,25.80
2018-05-31T14:00:57.841Z,26.20
2018-05-31T14:03:25.297Z,26.20
2018-05-31T14:05:52.764Z,26.40
2018-05-31T14:08:20.221Z,26.00
2018-05-31T14:10:47.684Z,26.10
2018-05-31T14:13:15.137Z,26.10
2018-05-31T14:15:42.593Z,26.20
2018-05-31T14:18:10.056Z,26.20
2018-05-31T14:20:37.524Z,26.50
2018-05-31T14:23:04.992Z,26.60
2018-05-31T14:25:32.445Z,26.80
2018-05-31T14:27:59.908Z,26.80
2018-05-31T14:30:27.385Z,26.90
2018-05-31T14:32:55.600Z,27.40
2018-05-31T14:35:23.085Z,27.40
2018-05-31T14:37:50.540Z,27.10
2018-05-31T14:40:18.012Z,27.50
2018-05-31T14:42:45.477Z,27.50
2018-05-31T14:45:13.700Z,27.60
2018-05-31T14:47:41.162Z,27.50
2018-05-31T14:50:08.632Z,27.30
2018-05-31T14:52:36.084Z,27.50
2018-05-31T14:55:03.564Z,27.70
2018-05-31T14:57:31.021Z,28.00
2018-05-31T14:59:58.480Z,28.20
2018-05-31T15:02:25.945Z,27.90
2018-05-31T15:04:53.398Z,28.10
2018-05-31T15:07:20.853Z,28.00
2018-05-31T15:09:48.328Z,27.80
2018-05-31T15:12:16.565Z,28.40
2018-05-31T15:14:44.025Z,28.40
2018-05-31T15:17:11.481Z,28.40
2018-05-31T15:19:38.945Z,28.40
2018-05-31T15:22:06.425Z,28.70
2018-05-31T15:24:34.642Z,28.40
2018-05-31T15:27:02.128Z,28.40
2018-05-31T15:29:29.585Z,28.50
2018-05-31T15:31:57.038Z,28.60
2018-05-31T15:34:24.492Z,28.60
2018-05-31T15:36:51.957Z,28.70
2018-05-31T15:39:19.415Z,28.60
2018-05-31T15:41:46.884Z,28.60
2018-05-31T15:44:14.344Z,28.70
2018-05-31T15:46:41.851Z,28.50
2018-05-31T15:49:10.230Z,28.50
2018-05-31T15:51:37.684Z,28.70
2018-05-31T15:54:05.146Z,28.80
2018-05-31T15:56:32.630Z,28.60
2018-05-31T15:59:00.093Z,28.60
2018-05-31T16:01:27.570Z,28.60
2018-05-31T16:03:55.804Z,28.80
2018-05-31T16:06:24.268Z,28.80
2018-05-31T16:08:51.745Z,28.70
2018-05-31T16:11:19.205Z,28.70
2018-05-31T16:13:46.688Z,28.80
2018-05-31T16:16:14.139Z,28.90
2018-05-31T16:18:41.597Z,28.90
2018-05-31T16:21:09.044Z,28.70
2018-05-31T16:23:36.528Z,28.70
2018-05-31T16:26:04.751Z,28.70
2018-05-31T16:28:32.273Z,28.60
2018-05-31T16:30:59.712Z,28.50
2018-05-31T16:33:27.935Z,28.40
2018-05-31T16:35:55.411Z,28.40
2018-05-31T16:38:22.869Z,28.50
2018-05-31T16:40:50.372Z,28.40
2018-05-31T16:43:17.866Z,27.80
2018-05-31T16:45:45.321Z,27.90
2018-05-31T16:48:12.777Z,27.90
2018-05-31T16:50:40.248Z,27.80
2018-05-31T16:53:07.764Z,27.70
2018-05-31T16:55:35.245Z,27.70
2018-05-31T16:58:02.701Z,27.50
2018-05-31T17:00:30.207Z,27.60
2018-05-31T17:02:57.640Z,27.50
2018-05-31T17:05:25.109Z,27.50
2018-05-31T17:07:52.573Z,27.40
2018-05-31T17:10:20.116Z,27.40
2018-05-31T17:12:47.620Z,27.50
2018-05-31T17:15:16.101Z,27.50
2018-05-31T17:17:43.579Z,27.20
2018-05-31T17:20:11.056Z,27.30
2018-05-31T17:22:38.521Z,27.30
2018-05-31T17:25:05.997Z,27.00
2018-05-31T17:27:33.457Z,26.80
2018-05-31T17:30:00.933Z,26.80
2018-05-31T17:32:29.170Z,26.70
2018-05-31T17:34:56.617Z,26.70
2018-05-31T17:37:24.093Z,26.70
2018-05-31T17:39:51.548Z,26.70
2018-05-31T17:42:19.006Z,26.80
2018-05-31T17:44:46.472Z,26.70
2018-05-31T17:47:13.924Z,26.70
2018-05-31T17:49:41.401Z,26.70
2018-05-31T17:52:09.632Z,26.70
2018-05-31T17:54:37.105Z,26.70
2018-05-31T17:57:04.584Z,26.70
2018-05-31T17:59:32.808Z,26.30
2018-05-31T18:02:00.273Z,26.30
2018-05-31T18:04:27.733Z,26.30
2018-05-31T18:06:55.200Z,26.30
2018-05-31T18:09:22.668Z,26.30
2018-05-31T18:11:50.129Z,26.30
2018-05-31T18:14:17.620Z,26.10
2018-05-31T18:16:45.067Z,26.20
2018-05-31T18:19:13.288Z,25.90
2018-05-31T18:21:40.752Z,25.90
2018-05-31T18:24:08.221Z,25.90
2018-05-31T18:26:35.722Z,25.70
2018-05-31T18:29:03.198Z,25.80
2018-05-31T18:31:30.660Z,25.80
2018-05-31T18:33:58.952Z,25.80
2018-05-31T18:36:26.411Z,25.70
2018-05-31T18:38:53.892Z,25.50
2018-05-31T18:41:21.353Z,25.60
2018-05-31T18:43:48.808Z,25.60
2018-05-31T18:46:17.043Z,25.30
2018-05-31T18:48:44.537Z,25.30
2018-05-31T18:51:26.854Z,25.30
2018-05-31T18:53:55.101Z,25.40
2018-05-31T18:56:22.589Z,25.30
2018-05-31T18:58:50.816Z,25.00
2018-05-31T19:01:18.296Z,25.00
2018-05-31T19:03:45.757Z,25.00
2018-05-31T19:06:13.233Z,25.10
2018-05-31T19:08:41.485Z,24.90
2018-05-31T19:11:08.953Z,24.80
2018-05-31T19:13:42.204Z,24.70
2018-05-31T19:16:09.664Z,24.70
2018-05-31T19:18:42.833Z,24.50
2018-05-31T19:21:10.296Z,24.40
2018-05-31T19:23:37.778Z,24.40
2018-05-31T19:26:05.256Z,24.30
2018-05-31T19:28:32.721Z,24.30
2018-05-31T19:31:05.818Z,24.10
2018-05-31T19:33:34.037Z,23.80
2018-05-31T19:36:07.315Z,23.80
2018-05-31T19:38:34.785Z,23.60
2018-05-31T19:41:02.241Z,23.60
2018-05-31T19:43:35.463Z,23.50
2018-05-31T19:46:02.936Z,23.50
2018-05-31T19:48:30.397Z,23.40
2018-05-31T19:50:57.909Z,23.30
2018-05-31T19:53:30.993Z,23.20
2018-05-31T19:55:58.468Z,23.10
2018-05-31T19:58:31.676Z,23.10
2018-05-31T20:01:04.848Z,22.90
2018-05-31T20:03:34.890Z,22.90
2018-05-31T20:06:02.356Z,23.00
2018-05-31T20:08:29.820Z,22.80
2018-05-31T20:10:58.064Z,22.60
2018-05-31T20:13:25.533Z,22.60
2018-05-31T20:15:53.004Z,22.50
2018-05-31T20:18:21.237Z,22.40
2018-05-31T20:20:48.735Z,22.40
2018-05-31T20:23:16.177Z,22.40
2018-05-31T20:25:43.645Z,22.40
2018-05-31T20:28:11.147Z,22.40
2018-05-31T20:30:38.614Z,22.30
2018-05-31T20:33:06.076Z,22.30
2018-05-31T20:35:33.552Z,22.20
2018-05-31T20:38:01.022Z,22.20
2018-05-31T20:40:28.492Z,22.10
2018-05-31T20:42:55.946Z,22.00
2018-05-31T20:45:23.422Z,21.90
2018-05-31T20:47:51.652Z,21.80
2018-05-31T20:50:19.120Z,21.80
2018-05-31T20:52:46.577Z,21.80
2018-05-31T20:55:14.044Z,21.80
2018-05-31T20:57:41.533Z,21.80
2018-05-31T21:00:09.000Z,21.70
2018-05-31T21:02:36.452Z,21.60
2018-05-31T21:05:03.932Z,21.50
2018-05-31T21:07:31.391Z,21.50
2018-05-31T21:09:58.871Z,21.40
2018-05-31T21:12:26.340Z,21.30
2018-05-31T21:14:53.807Z,21.20
2018-05-31T21:17:22.053Z,21.20
2018-05-31T21:19:49.515Z,21.20
2018-05-31T21:22:16.992Z,21.20
2018-05-31T21:24:44.492Z,21.10
2018-05-31T21:27:11.944Z,21.10
2018-05-31T21:29:39.401Z,21.00
2018-05-31T21:32:06.877Z,21.00
2018-05-31T21:34:34.333Z,21.00
2018-05-31T21:37:01.799Z,21.00
2018-05-31T21:39:30.058Z,20.90
2018-05-31T21:41:57.522Z,20.90
2018-05-31T21:44:25.000Z,20.90
2018-05-31T21:46:52.463Z,20.80
2018-05-31T21:49:19.929Z,20.70
2018-05-31T21:51:47.390Z,20.70
2018-05-31T21:54:14.847Z,20.70
2018-05-31T21:56:42.316Z,20.60
2018-05-31T21:59:10.561Z,20.60
2018-05-31T22:01:38.040Z,20.60
2018-05-31T22:04:06.274Z,20.50
2018-05-31T22:06:33.749Z,20.40
2018-05-31T22:09:01.207Z,20.40
2018-05-31T22:11:28.727Z,20.30
2018-05-31T22:13:56.929Z,20.30
2018-05-31T22:16:24.393Z,20.20
2018-05-31T22:18:51.871Z,20.20
2018-05-31T22:21:19.349Z,20.10
2018-05-31T22:23:47.580Z,20.10
2018-05-31T22:26:15.045Z,20.00
2018-05-31T22:28:42.526Z,20.00
2018-05-31T22:31:10.745Z,19.80
2018-05-31T22:33:38.217Z,19.80
2018-05-31T22:36:05.688Z,19.80
2018-05-31T22:38:33.150Z,19.70
2018-05-31T22:41:00.628Z,19.70
2018-05-31T22:43:28.891Z,19.50
2018-05-31T22:45:56.398Z,19.50
2018-05-31T22:48:23.817Z,19.40
2018-05-31T22:50:52.056Z,19.40
2018-05-31T22:53:19.524Z,19.40
2018-05-31T22:55:47.001Z,19.40
2018-05-31T22:58:14.457Z,19.30
2018-05-31T23:00:42.701Z,19.20
2018-05-31T23:03:10.160Z,19.20
2018-05-31T23:05:37.633Z,19.10
2018-05-31T23:08:05.106Z,19.10
2018-05-31T23:10:33.339Z,19.00
2018-05-31T23:13:00.808Z,19.00
2018-05-31T23:15:28.269Z,18.90
2018-05-31T23:17:55.729Z,18.80
2018-05-31T23:20:23.351Z,18.70
2018-05-31T23:22:50.803Z,18.80
2018-05-31T23:25:18.377Z,18.70
2018-05-31T23:27:45.851Z,18.70
2018-05-31T23:30:13.316Z,18.70
2018-05-31T23:32:40.798Z,18.80
2018-05-31T23:35:09.023Z,18.50
2018-05-31T23:37:36.496Z,18.50
2018-05-31T23:40:03.954Z,18.60
2018-05-31T23:42:31.430Z,18.60
2018-05-31T23:44:58.907Z,18.60
2018-05-31T23:47:27.128Z,18.40
2018-05-31T23:49:54.600Z,18.40
2018-05-31T23:52:22.069Z,18.50
2018-05-31T23:54:49.532Z,18.50
2018-05-31T23:57:16.991Z,18.40
2018-05-31T23:59:44.452Z,18.40
